createdAt,value
2023-04-10T00:01:04.384Z,9.37
2023-04-10T00:05:55.161Z,9.29
2023-04-10T00:10:48.754Z,9.15
2023-04-10T00:15:40.323Z,9.10
2023-04-10T00:20:31.818Z,8.98
2023-04-10T00:25:23.508Z,8.98
2023-04-10T00:30:19.918Z,8.90
2023-04-10T00:35:12.856Z,8.81
2023-04-10T00:40:09.093Z,8.71
2023-04-10T00:45:02.852Z,8.73
2023-04-10T00:49:57.536Z,8.76
2023-04-10T00:54:57.599Z,8.77
2023-04-10T00:59:52.806Z,8.74
2023-04-10T01:04:48.275Z,8.75
2023-04-10T01:09:54.585Z,8.78
2023-04-10T01:14:54.737Z,8.74
2023-04-10T01:20:06.136Z,8.69
2023-04-10T01:25:20.484Z,8.63
2023-04-10T01:30:18.901Z,8.52
2023-04-10T01:35:14.515Z,8.52
2023-04-10T01:40:07.737Z,8.45
2023-04-10T01:45:01.324Z,8.51
2023-04-10T01:49:58.475Z,8.42
2023-04-10T01:54:53.681Z,8.41
2023-04-10T01:59:54.082Z,8.38
2023-04-10T02:04:47.466Z,8.36
2023-04-10T02:09:55.803Z,8.32
2023-04-10T02:14:52.961Z,8.21
2023-04-10T02:19:49.116Z,8.23
2023-04-10T02:24:40.107Z,8.18
2023-04-10T02:29:33.744Z,8.20
2023-04-10T02:34:34.401Z,8.27
2023-04-10T02:39:29.826Z,8.25
2023-04-10T02:44:29.746Z,8.21
2023-04-10T02:49:26.409Z,8.15
2023-04-10T02:54:17.656Z,8.15
2023-04-10T02:59:11.280Z,8.15
2023-04-10T03:04:06.031Z,8.04
2023-04-10T03:09:11.552Z,8.12
2023-04-10T03:14:02.661Z,8.13
2023-04-10T03:18:57.492Z,8.00
2023-04-10T03:23:48.467Z,8.03
2023-04-10T03:28:45.465Z,7.98
2023-04-10T03:33:36.590Z,7.87
2023-04-10T03:38:31.691Z,7.89
2023-04-10T03:43:25.254Z,7.95
2023-04-10T03:48:19.659Z,7.94
2023-04-10T03:53:11.494Z,7.91
2023-04-10T03:58:05.488Z,7.93
2023-04-10T04:02:57.404Z,7.80
2023-04-10T04:08:11.524Z,7.77
2023-04-10T04:13:21.578Z,7.68
2023-04-10T04:18:20.773Z,7.67
2023-04-10T04:23:23.270Z,7.64
2023-04-10T04:28:42.551Z,7.58
2023-04-10T04:33:50.932Z,7.58
2023-04-10T04:38:54.178Z,7.63
2023-04-10T04:44:09.439Z,7.53
2023-04-10T04:49:20.844Z,7.53
2023-04-10T04:54:33.329Z,7.56
2023-04-10T04:59:46.030Z,7.53
2023-04-10T05:05:02.834Z,7.71
2023-04-10T05:10:22.775Z,7.76
2023-04-10T05:15:39.948Z,7.73
2023-04-10T05:20:53.504Z,7.74
2023-04-10T05:26:07.491Z,7.73
2023-04-10T05:31:15.940Z,7.73
2023-04-10T05:36:36.368Z,7.68
2023-04-10T05:41:39.971Z,7.70
2023-04-10T05:46:45.807Z,7.77
2023-04-10T05:52:17.081Z,7.80
2023-04-10T05:57:30.114Z,7.83
2023-04-10T06:02:37.252Z,7.85
2023-04-10T06:07:32.963Z,7.93
2023-04-10T06:12:24.824Z,7.91
2023-04-10T06:17:22.140Z,7.89
2023-04-10T06:22:13.386Z,7.97
2023-04-10T06:27:05.709Z,7.96
2023-04-10T06:31:57.455Z,8.04
2023-04-10T06:36:59.319Z,8.08
2023-04-10T06:41:51.021Z,8.10
2023-04-10T06:47:02.990Z,8.19
2023-04-10T06:51:58.814Z,8.21
2023-04-10T06:56:51.828Z,8.27
2023-04-10T07:01:42.773Z,8.39
2023-04-10T07:06:36.331Z,8.48
2023-04-10T07:11:32.008Z,8.58
2023-04-10T07:16:33.791Z,8.70
2023-04-10T07:21:25.292Z,8.81
2023-04-10T07:26:19.017Z,8.94
2023-04-10T07:31:15.456Z,9.13
2023-04-10T07:36:09.790Z,9.24
2023-04-10T07:41:07.615Z,9.26
2023-04-10T07:46:00.029Z,9.24
2023-04-10T07:50:54.349Z,9.21
2023-04-10T07:55:50.235Z,9.34
2023-04-10T08:00:42.098Z,9.39
2023-04-10T08:05:39.599Z,9.40
2023-04-10T08:10:34.805Z,9.51
2023-04-10T08:15:29.507Z,9.45
2023-04-10T08:20:20.894Z,9.46
2023-04-10T08:25:13.014Z,9.43
2023-04-10T08:30:07.288Z,9.48
2023-04-10T08:35:06.749Z,9.67
2023-04-10T08:40:02.332Z,9.81
2023-04-10T08:45:07.001Z,9.95
2023-04-10T08:50:06.318Z,10.08
2023-04-10T08:55:01.511Z,10.12
2023-04-10T08:59:56.594Z,10.31
2023-04-10T09:04:53.022Z,10.36
2023-04-10T09:10:09.468Z,10.31
2023-04-10T09:15:02.652Z,10.37
2023-04-10T09:20:01.227Z,10.38
2023-04-10T09:24:55.350Z,10.23
2023-04-10T09:29:55.253Z,10.37
2023-04-10T09:35:00.051Z,10.39
2023-04-10T09:39:53.779Z,10.42
2023-04-10T09:44:45.926Z,10.66
2023-04-10T09:49:53.518Z,10.78
2023-04-10T09:54:49.830Z,11.01
2023-04-10T09:59:44.246Z,11.14
2023-04-10T10:04:36.085Z,11.25
2023-04-10T10:09:29.404Z,11.41
2023-04-10T10:14:26.223Z,11.53
2023-04-10T10:19:21.747Z,11.76
2023-04-10T10:24:13.671Z,12.24
2023-04-10T10:29:11.248Z,12.43
2023-04-10T10:34:08.052Z,12.64
2023-04-10T10:39:13.733Z,12.67
2023-04-10T10:44:18.261Z,12.81
2023-04-10T10:49:17.470Z,13.05
2023-04-10T10:54:27.928Z,13.45
2023-04-10T10:59:20.352Z,13.67
2023-04-10T11:04:41.078Z,13.93
2023-04-10T11:09:51.365Z,14.05
2023-04-10T11:14:43.137Z,14.12
2023-04-10T11:20:00.371Z,14.06
2023-04-10T11:25:18.005Z,14.03
2023-04-10T11:30:30.458Z,13.99
2023-04-10T11:35:23.267Z,13.83
2023-04-10T11:40:17.365Z,13.87
2023-04-10T11:45:40.740Z,13.93
2023-04-10T11:50:47.633Z,14.02
2023-04-10T11:55:43.472Z,13.95
2023-04-10T12:00:33.730Z,13.98
2023-04-10T12:05:23.724Z,13.74
2023-04-10T12:10:13.791Z,13.78
2023-04-10T12:15:26.702Z,13.60
2023-04-10T12:20:27.153Z,13.47
2023-04-10T12:25:17.681Z,13.35
2023-04-10T12:30:14.756Z,13.23
2023-04-10T12:35:09.635Z,13.20
2023-04-10T12:40:17.047Z,13.21
2023-04-10T12:45:11.975Z,13.06
2023-04-10T12:50:21.274Z,13.02
2023-04-10T12:55:14.657Z,12.89
2023-04-10T13:00:06.648Z,12.80
2023-04-10T13:05:05.426Z,12.61
2023-04-10T13:09:59.804Z,12.40
2023-04-10T13:14:52.013Z,12.27
2023-04-10T13:19:45.337Z,12.19
2023-04-10T13:24:40.139Z,12.17
2023-04-10T13:29:38.912Z,12.27
2023-04-10T13:34:32.304Z,12.25
2023-04-10T13:39:43.703Z,12.27
2023-04-10T13:44:41.776Z,12.19
2023-04-10T13:49:39.812Z,12.06
2023-04-10T13:54:33.653Z,11.87
2023-04-10T13:59:24.629Z,11.63
2023-04-10T14:04:18.871Z,11.50
2023-04-10T14:09:12.005Z,11.31
2023-04-10T14:14:14.169Z,11.15
2023-04-10T14:19:05.892Z,11.09
2023-04-10T14:24:01.121Z,10.93
2023-04-10T14:28:54.151Z,10.84
2023-04-10T14:34:04.765Z,10.74
2023-04-10T14:39:01.903Z,10.74
2023-04-10T14:43:58.812Z,10.83
2023-04-10T14:48:54.520Z,10.85
2023-04-10T14:53:55.455Z,11.00
2023-04-10T14:58:58.747Z,10.94
2023-04-10T15:03:54.066Z,10.94
2023-04-10T15:08:52.648Z,10.89
2023-04-10T15:13:47.019Z,10.79
2023-04-10T15:18:50.112Z,10.62
2023-04-10T15:23:47.840Z,10.51
2023-04-10T15:28:44.599Z,10.32
2023-04-10T15:33:40.000Z,10.29
2023-04-10T15:38:39.213Z,10.28
2023-04-10T15:43:43.676Z,10.25
2023-04-10T15:48:37.742Z,10.27
2023-04-10T15:53:33.010Z,10.07
2023-04-10T15:58:30.627Z,10.11
2023-04-10T16:03:28.561Z,10.03
2023-04-10T16:08:23.289Z,10.06
2023-04-10T16:13:22.877Z,10.08
2023-04-10T16:18:17.439Z,10.04
2023-04-10T16:23:11.337Z,10.06
2023-04-10T16:28:03.392Z,10.06
2023-04-10T16:32:58.757Z,10.02
2023-04-10T16:37:54.940Z,9.95
2023-04-10T16:42:47.599Z,10.01
2023-04-10T16:47:50.219Z,9.93
2023-04-10T16:52:46.614Z,9.84
2023-04-10T16:57:44.372Z,9.88
2023-04-10T17:02:36.677Z,9.92
2023-04-10T17:07:27.898Z,9.92
2023-04-10T17:12:21.127Z,9.87
2023-04-10T17:17:19.160Z,9.95
2023-04-10T17:22:17.082Z,9.87
2023-04-10T17:27:07.981Z,9.87
2023-04-10T17:32:00.447Z,9.79
2023-04-10T17:36:57.389Z,9.81
2023-04-10T17:41:50.900Z,9.76
2023-04-10T17:46:44.142Z,9.75
2023-04-10T17:51:38.746Z,9.72
2023-04-10T17:56:42.769Z,9.67
2023-04-10T18:01:38.732Z,9.60
2023-04-10T18:06:32.825Z,9.55
2023-04-10T18:11:24.807Z,9.56
2023-04-10T18:16:18.709Z,9.62
2023-04-10T18:21:15.136Z,9.47
2023-04-10T18:26:07.171Z,9.43
2023-04-10T18:31:05.077Z,9.38
2023-04-10T18:36:00.770Z,9.36
2023-04-10T18:40:53.173Z,9.31
2023-04-10T18:45:46.508Z,9.24
2023-04-10T18:50:43.102Z,9.25
2023-04-10T18:55:51.649Z,9.18
2023-04-10T19:00:45.801Z,9.21
2023-04-10T19:05:42.444Z,9.19
2023-04-10T19:10:36.689Z,9.11
2023-04-10T19:15:31.296Z,9.16
2023-04-10T19:20:52.691Z,9.11
2023-04-10T19:25:41.400Z,9.06
2023-04-10T19:30:36.013Z,9.01
2023-04-10T19:35:32.797Z,8.99
2023-04-10T19:40:25.263Z,9.34
2023-04-10T19:45:27.933Z,9.57
2023-04-10T19:50:23.754Z,9.57
2023-04-10T19:55:22.298Z,9.52
2023-04-10T20:00:17.566Z,9.68
2023-04-10T20:05:08.949Z,9.64
2023-04-10T20:10:03.949Z,9.59
2023-04-10T20:14:54.635Z,9.54
2023-04-10T20:19:50.483Z,9.61
2023-04-10T20:24:40.944Z,9.65
2023-04-10T20:29:35.291Z,9.54
2023-04-10T20:34:25.929Z,9.45
2023-04-10T20:39:17.874Z,9.52
2023-04-10T20:44:08.739Z,9.43
2023-04-10T20:49:01.517Z,9.47
2023-04-10T20:53:52.433Z,9.52
2023-04-10T20:58:43.520Z,9.25
2023-04-10T21:03:38.079Z,9.32
2023-04-10T21:08:31.289Z,9.31
2023-04-10T21:13:21.520Z,9.23
2023-04-10T21:18:14.025Z,9.23
2023-04-10T21:23:06.978Z,9.14
2023-04-10T21:28:01.986Z,9.23
2023-04-10T21:32:55.492Z,9.19
2023-04-10T21:37:46.501Z,9.24
2023-04-10T21:42:39.983Z,9.10
2023-04-10T21:47:32.992Z,9.20
2023-04-10T21:52:23.736Z,9.09
2023-04-10T21:57:14.765Z,9.27
2023-04-10T22:02:05.391Z,9.26
2023-04-10T22:06:58.940Z,9.26
2023-04-10T22:11:50.229Z,9.24
2023-04-10T22:16:40.646Z,9.13
2023-04-10T22:21:32.995Z,9.16
2023-04-10T22:26:27.849Z,9.16
2023-04-10T22:31:19.312Z,9.08
2023-04-10T22:36:11.022Z,9.11
2023-04-10T22:41:01.675Z,8.94
2023-04-10T22:45:54.905Z,8.98
2023-04-10T22:50:46.183Z,8.88
2023-04-10T22:55:37.296Z,8.88
2023-04-10T23:00:28.233Z,8.78
2023-04-10T23:05:24.080Z,8.89
2023-04-10T23:10:15.638Z,8.73
2023-04-10T23:15:05.848Z,8.87
2023-04-10T23:19:57.522Z,8.69
2023-04-10T23:24:50.981Z,8.84
2023-04-10T23:29:40.980Z,8.76
2023-04-10T23:34:31.275Z,8.71
2023-04-10T23:39:22.945Z,8.64
2023-04-10T23:44:16.211Z,8.56
2023-04-10T23:49:07.038Z,8.44
2023-04-10T23:53:57.765Z,8.38
2023-04-10T23:58:49.029Z,8.33
